sensor_id;sensor_type;location;lat;lon;timestamp;P1;durP1;ratioP1;P2;durP2;ratioP2
75793;SDS011;64418;47.536;19.074;2022-11-11T00:00:10;16.73;;;8.30;;
75793;SDS011;64418;47.536;19.074;2022-11-11T00:02:42;16.80;;;7.80;;
75793;SDS011;64418;47.536;19.074;2022-11-11T00:05:09;16.10;;;8.13;;
75793;SDS011;64418;47.536;19.074;2022-11-11T00:07:36;15.43;;;8.20;;
75793;SDS011;64418;47.536;19.074;2022-11-11T00:10:02;25.12;;;9.45;;
75793;SDS011;64418;47.536;19.074;2022-11-11T00:12:29;15.10;;;8.48;;
75793;SDS011;64418;47.536;19.074;2022-11-11T00:14:58;16.20;;;8.93;;
75793;SDS011;64418;47.536;19.074;2022-11-11T00:17:24;17.57;;;9.13;;
75793;SDS011;64418;47.536;19.074;2022-11-11T00:19:53;21.67;;;9.43;;
75793;SDS011;64418;47.536;19.074;2022-11-11T00:22:20;35.53;;;13.80;;
75793;SDS011;64418;47.536;19.074;2022-11-11T00:24:51;17.80;;;9.82;;
75793;SDS011;64418;47.536;19.074;2022-11-11T00:27:17;20.27;;;9.45;;
75793;SDS011;64418;47.536;19.074;2022-11-11T00:29:45;19.20;;;9.73;;
75793;SDS011;64418;47.536;19.074;2022-11-11T00:32:12;20.42;;;9.35;;
75793;SDS011;64418;47.536;19.074;2022-11-11T00:34:39;21.95;;;10.10;;
75793;SDS011;64418;47.536;19.074;2022-11-11T00:37:09;17.48;;;9.48;;
75793;SDS011;64418;47.536;19.074;2022-11-11T00:39:35;20.60;;;9.30;;
75793;SDS011;64418;47.536;19.074;2022-11-11T00:42:01;20.07;;;9.73;;
75793;SDS011;64418;47.536;19.074;2022-11-11T00:44:28;19.20;;;9.05;;
75793;SDS011;64418;47.536;19.074;2022-11-11T00:46:56;18.33;;;9.25;;
75793;SDS011;64418;47.536;19.074;2022-11-11T00:49:22;19.00;;;9.75;;
75793;SDS011;64418;47.536;19.074;2022-11-11T00:51:49;18.33;;;9.13;;
75793;SDS011;64418;47.536;19.074;2022-11-11T00:54:16;17.70;;;8.77;;
75793;SDS011;64418;47.536;19.074;2022-11-11T00:56:42;21.58;;;9.20;;
75793;SDS011;64418;47.536;19.074;2022-11-11T00:59:08;18.87;;;10.07;;
75793;SDS011;64418;47.536;19.074;2022-11-11T01:01:34;19.48;;;10.48;;
75793;SDS011;64418;47.536;19.074;2022-11-11T01:04:03;20.48;;;9.65;;
75793;SDS011;64418;47.536;19.074;2022-11-11T01:06:29;24.03;;;10.00;;
75793;SDS011;64418;47.536;19.074;2022-11-11T01:08:55;20.62;;;10.75;;
75793;SDS011;64418;47.536;19.074;2022-11-11T01:11:31;24.45;;;10.88;;
75793;SDS011;64418;47.536;19.074;2022-11-11T01:13:57;21.15;;;10.43;;
75793;SDS011;64418;47.536;19.074;2022-11-11T01:16:24;22.83;;;11.03;;
75793;SDS011;64418;47.536;19.074;2022-11-11T01:18:51;19.03;;;9.93;;
75793;SDS011;64418;47.536;19.074;2022-11-11T01:21:19;18.83;;;10.63;;
75793;SDS011;64418;47.536;19.074;2022-11-11T01:23:46;23.35;;;10.57;;
75793;SDS011;64418;47.536;19.074;2022-11-11T01:26:13;21.23;;;11.12;;
75793;SDS011;64418;47.536;19.074;2022-11-11T01:28:42;18.62;;;10.50;;
75793;SDS011;64418;47.536;19.074;2022-11-11T01:31:09;22.50;;;10.77;;
75793;SDS011;64418;47.536;19.074;2022-11-11T01:33:36;21.62;;;11.02;;
75793;SDS011;64418;47.536;19.074;2022-11-11T01:36:03;21.70;;;10.63;;
75793;SDS011;64418;47.536;19.074;2022-11-11T01:38:30;24.58;;;10.43;;
75793;SDS011;64418;47.536;19.074;2022-11-11T01:40:59;20.45;;;10.85;;
75793;SDS011;64418;47.536;19.074;2022-11-11T01:43:25;34.07;;;15.17;;
75793;SDS011;64418;47.536;19.074;2022-11-11T01:45:54;23.67;;;12.73;;
75793;SDS011;64418;47.536;19.074;2022-11-11T01:48:25;24.65;;;12.00;;
75793;SDS011;64418;47.536;19.074;2022-11-11T01:50:55;22.52;;;10.88;;
75793;SDS011;64418;47.536;19.074;2022-11-11T01:53:23;21.90;;;10.25;;
75793;SDS011;64418;47.536;19.074;2022-11-11T01:55:51;21.47;;;11.13;;
75793;SDS011;64418;47.536;19.074;2022-11-11T01:58:20;22.58;;;10.57;;
75793;SDS011;64418;47.536;19.074;2022-11-11T02:00:48;22.37;;;10.82;;
75793;SDS011;64418;47.536;19.074;2022-11-11T02:03:16;23.75;;;11.27;;
75793;SDS011;64418;47.536;19.074;2022-11-11T02:05:46;23.95;;;11.38;;
75793;SDS011;64418;47.536;19.074;2022-11-11T02:08:13;19.70;;;10.17;;
75793;SDS011;64418;47.536;19.074;2022-11-11T02:10:42;24.92;;;10.80;;
75793;SDS011;64418;47.536;19.074;2022-11-11T02:13:11;21.33;;;10.02;;
75793;SDS011;64418;47.536;19.074;2022-11-11T02:15:39;22.02;;;10.85;;
75793;SDS011;64418;47.536;19.074;2022-11-11T02:18:05;21.02;;;10.52;;
75793;SDS011;64418;47.536;19.074;2022-11-11T02:20:35;24.53;;;11.27;;
75793;SDS011;64418;47.536;19.074;2022-11-11T02:23:03;22.80;;;10.60;;
75793;SDS011;64418;47.536;19.074;2022-11-11T02:25:34;20.10;;;10.10;;
75793;SDS011;64418;47.536;19.074;2022-11-11T02:28:05;21.67;;;11.50;;
75793;SDS011;64418;47.536;19.074;2022-11-11T02:30:32;20.75;;;10.38;;
75793;SDS011;64418;47.536;19.074;2022-11-11T02:32:58;25.53;;;11.00;;
75793;SDS011;64418;47.536;19.074;2022-11-11T02:35:29;20.05;;;10.10;;
75793;SDS011;64418;47.536;19.074;2022-11-11T02:37:56;22.30;;;10.95;;
75793;SDS011;64418;47.536;19.074;2022-11-11T02:40:22;25.00;;;11.77;;
75793;SDS011;64418;47.536;19.074;2022-11-11T02:42:54;23.87;;;10.73;;
75793;SDS011;64418;47.536;19.074;2022-11-11T02:45:20;25.00;;;11.40;;
75793;SDS011;64418;47.536;19.074;2022-11-11T02:47:47;22.35;;;10.73;;
75793;SDS011;64418;47.536;19.074;2022-11-11T02:50:13;23.70;;;11.07;;
75793;SDS011;64418;47.536;19.074;2022-11-11T02:52:39;20.77;;;10.23;;
75793;SDS011;64418;47.536;19.074;2022-11-11T02:55:05;21.33;;;10.60;;
75793;SDS011;64418;47.536;19.074;2022-11-11T02:57:31;21.87;;;11.52;;
75793;SDS011;64418;47.536;19.074;2022-11-11T02:59:58;20.70;;;11.00;;
75793;SDS011;64418;47.536;19.074;2022-11-11T03:02:25;28.95;;;11.63;;
75793;SDS011;64418;47.536;19.074;2022-11-11T03:04:51;23.83;;;12.02;;
75793;SDS011;64418;47.536;19.074;2022-11-11T03:07:17;20.33;;;10.93;;
75793;SDS011;64418;47.536;19.074;2022-11-11T03:09:42;19.80;;;11.00;;
75793;SDS011;64418;47.536;19.074;2022-11-11T03:12:08;25.40;;;11.93;;
75793;SDS011;64418;47.536;19.074;2022-11-11T03:14:34;23.30;;;11.80;;
75793;SDS011;64418;47.536;19.074;2022-11-11T03:17:01;24.10;;;11.88;;
75793;SDS011;64418;47.536;19.074;2022-11-11T03:19:27;27.02;;;12.48;;
75793;SDS011;64418;47.536;19.074;2022-11-11T03:21:52;21.73;;;11.67;;
75793;SDS011;64418;47.536;19.074;2022-11-11T03:24:18;22.02;;;12.68;;
75793;SDS011;64418;47.536;19.074;2022-11-11T03:26:44;24.47;;;11.83;;
75793;SDS011;64418;47.536;19.074;2022-11-11T03:29:10;25.42;;;11.98;;
75793;SDS011;64418;47.536;19.074;2022-11-11T03:31:36;24.20;;;11.32;;
75793;SDS011;64418;47.536;19.074;2022-11-11T03:34:03;25.33;;;12.83;;
75793;SDS011;64418;47.536;19.074;2022-11-11T03:36:30;26.15;;;12.25;;
75793;SDS011;64418;47.536;19.074;2022-11-11T03:38:55;25.48;;;12.20;;
75793;SDS011;64418;47.536;19.074;2022-11-11T03:41:21;24.37;;;12.20;;
75793;SDS011;64418;47.536;19.074;2022-11-11T03:43:47;24.95;;;11.98;;
75793;SDS011;64418;47.536;19.074;2022-11-11T03:46:13;26.80;;;12.05;;
75793;SDS011;64418;47.536;19.074;2022-11-11T03:48:39;24.70;;;12.17;;
75793;SDS011;64418;47.536;19.074;2022-11-11T03:51:06;25.42;;;13.62;;
75793;SDS011;64418;47.536;19.074;2022-11-11T03:53:32;25.88;;;12.60;;
75793;SDS011;64418;47.536;19.074;2022-11-11T03:55:58;24.35;;;12.70;;
75793;SDS011;64418;47.536;19.074;2022-11-11T03:58:23;25.60;;;12.20;;
75793;SDS011;64418;47.536;19.074;2022-11-11T04:00:49;24.80;;;11.77;;
75793;SDS011;64418;47.536;19.074;2022-11-11T04:03:15;25.12;;;12.90;;
75793;SDS011;64418;47.536;19.074;2022-11-11T04:05:42;26.40;;;12.45;;
75793;SDS011;64418;47.536;19.074;2022-11-11T04:08:11;29.53;;;14.33;;
75793;SDS011;64418;47.536;19.074;2022-11-11T04:10:38;24.83;;;12.68;;
75793;SDS011;64418;47.536;19.074;2022-11-11T04:13:04;25.80;;;12.50;;
75793;SDS011;64418;47.536;19.074;2022-11-11T04:15:30;28.45;;;13.48;;
75793;SDS011;64418;47.536;19.074;2022-11-11T04:17:56;25.53;;;12.20;;
75793;SDS011;64418;47.536;19.074;2022-11-11T04:20:21;31.50;;;13.55;;
75793;SDS011;64418;47.536;19.074;2022-11-11T04:22:47;26.17;;;13.57;;
75793;SDS011;64418;47.536;19.074;2022-11-11T04:25:14;26.70;;;12.82;;
75793;SDS011;64418;47.536;19.074;2022-11-11T04:27:40;24.93;;;12.93;;
75793;SDS011;64418;47.536;19.074;2022-11-11T04:30:07;27.00;;;13.00;;
75793;SDS011;64418;47.536;19.074;2022-11-11T04:32:33;25.62;;;13.02;;
75793;SDS011;64418;47.536;19.074;2022-11-11T04:35:00;24.47;;;12.90;;
75793;SDS011;64418;47.536;19.074;2022-11-11T04:37:27;26.67;;;12.50;;
75793;SDS011;64418;47.536;19.074;2022-11-11T04:39:55;24.25;;;12.55;;
75793;SDS011;64418;47.536;19.074;2022-11-11T04:42:23;27.57;;;12.40;;
75793;SDS011;64418;47.536;19.074;2022-11-11T04:44:49;25.35;;;12.63;;
75793;SDS011;64418;47.536;19.074;2022-11-11T04:47:15;26.92;;;13.32;;
75793;SDS011;64418;47.536;19.074;2022-11-11T04:49:41;27.50;;;13.45;;
75793;SDS011;64418;47.536;19.074;2022-11-11T04:52:08;27.07;;;13.63;;
75793;SDS011;64418;47.536;19.074;2022-11-11T04:54:34;31.98;;;14.87;;
75793;SDS011;64418;47.536;19.074;2022-11-11T04:57:00;31.60;;;14.97;;
75793;SDS011;64418;47.536;19.074;2022-11-11T04:59:27;31.60;;;14.60;;
75793;SDS011;64418;47.536;19.074;2022-11-11T05:01:52;32.80;;;15.02;;
75793;SDS011;64418;47.536;19.074;2022-11-11T05:04:18;31.33;;;15.67;;
75793;SDS011;64418;47.536;19.074;2022-11-11T05:06:44;31.50;;;16.00;;
75793;SDS011;64418;47.536;19.074;2022-11-11T05:09:10;26.57;;;14.60;;
75793;SDS011;64418;47.536;19.074;2022-11-11T05:11:35;27.40;;;13.62;;
75793;SDS011;64418;47.536;19.074;2022-11-11T05:14:01;26.43;;;13.37;;
75793;SDS011;64418;47.536;19.074;2022-11-11T05:16:33;30.60;;;17.08;;
75793;SDS011;64418;47.536;19.074;2022-11-11T05:19:02;29.02;;;14.75;;
75793;SDS011;64418;47.536;19.074;2022-11-11T05:21:28;28.17;;;13.05;;
75793;SDS011;64418;47.536;19.074;2022-11-11T05:23:55;30.92;;;13.20;;
75793;SDS011;64418;47.536;19.074;2022-11-11T05:26:21;26.57;;;12.27;;
75793;SDS011;64418;47.536;19.074;2022-11-11T05:28:47;24.73;;;12.55;;
75793;SDS011;64418;47.536;19.074;2022-11-11T05:31:13;26.37;;;12.27;;
75793;SDS011;64418;47.536;19.074;2022-11-11T05:33:40;25.80;;;12.93;;
75793;SDS011;64418;47.536;19.074;2022-11-11T05:36:06;28.60;;;14.00;;
75793;SDS011;64418;47.536;19.074;2022-11-11T05:38:33;32.17;;;14.45;;
75793;SDS011;64418;47.536;19.074;2022-11-11T05:41:02;27.60;;;12.70;;
75793;SDS011;64418;47.536;19.074;2022-11-11T05:43:29;30.92;;;14.48;;
75793;SDS011;64418;47.536;19.074;2022-11-11T05:45:54;28.00;;;13.95;;
75793;SDS011;64418;47.536;19.074;2022-11-11T05:48:20;27.23;;;12.80;;
75793;SDS011;64418;47.536;19.074;2022-11-11T05:50:48;32.45;;;13.20;;
75793;SDS011;64418;47.536;19.074;2022-11-11T05:53:14;28.55;;;13.50;;
75793;SDS011;64418;47.536;19.074;2022-11-11T05:55:40;29.57;;;13.90;;
75793;SDS011;64418;47.536;19.074;2022-11-11T05:58:05;26.60;;;13.55;;
75793;SDS011;64418;47.536;19.074;2022-11-11T06:00:32;33.33;;;13.80;;
75793;SDS011;64418;47.536;19.074;2022-11-11T06:03:00;24.90;;;12.23;;
75793;SDS011;64418;47.536;19.074;2022-11-11T06:05:27;24.92;;;13.25;;
75793;SDS011;64418;47.536;19.074;2022-11-11T06:07:55;26.23;;;12.98;;
75793;SDS011;64418;47.536;19.074;2022-11-11T06:10:21;27.00;;;13.23;;
75793;SDS011;64418;47.536;19.074;2022-11-11T06:12:47;27.77;;;13.65;;
75793;SDS011;64418;47.536;19.074;2022-11-11T06:15:13;23.57;;;12.93;;
75793;SDS011;64418;47.536;19.074;2022-11-11T06:17:39;35.35;;;13.77;;
75793;SDS011;64418;47.536;19.074;2022-11-11T06:20:05;33.60;;;13.80;;
75793;SDS011;64418;47.536;19.074;2022-11-11T06:22:32;30.67;;;13.07;;
75793;SDS011;64418;47.536;19.074;2022-11-11T06:25:00;31.65;;;13.80;;
75793;SDS011;64418;47.536;19.074;2022-11-11T06:27:25;32.92;;;14.00;;
75793;SDS011;64418;47.536;19.074;2022-11-11T06:29:54;33.22;;;14.35;;
75793;SDS011;64418;47.536;19.074;2022-11-11T06:32:20;31.17;;;13.88;;
75793;SDS011;64418;47.536;19.074;2022-11-11T06:34:47;27.20;;;13.60;;
75793;SDS011;64418;47.536;19.074;2022-11-11T06:37:13;34.17;;;16.20;;
75793;SDS011;64418;47.536;19.074;2022-11-11T06:39:39;34.90;;;14.77;;
75793;SDS011;64418;47.536;19.074;2022-11-11T06:42:06;30.30;;;14.52;;
75793;SDS011;64418;47.536;19.074;2022-11-11T06:44:32;43.47;;;15.00;;
75793;SDS011;64418;47.536;19.074;2022-11-11T06:46:58;34.15;;;14.95;;
75793;SDS011;64418;47.536;19.074;2022-11-11T06:49:24;24.90;;;12.53;;
75793;SDS011;64418;47.536;19.074;2022-11-11T06:51:50;24.30;;;12.35;;
75793;SDS011;64418;47.536;19.074;2022-11-11T06:54:17;22.58;;;12.60;;
75793;SDS011;64418;47.536;19.074;2022-11-11T06:56:46;26.08;;;13.18;;
75793;SDS011;64418;47.536;19.074;2022-11-11T06:59:13;25.73;;;12.85;;
75793;SDS011;64418;47.536;19.074;2022-11-11T07:01:39;22.77;;;12.70;;
75793;SDS011;64418;47.536;19.074;2022-11-11T07:04:05;25.12;;;12.48;;
75793;SDS011;64418;47.536;19.074;2022-11-11T07:06:31;27.83;;;13.63;;
75793;SDS011;64418;47.536;19.074;2022-11-11T07:08:57;24.65;;;12.63;;
75793;SDS011;64418;47.536;19.074;2022-11-11T07:11:24;25.52;;;12.85;;
75793;SDS011;64418;47.536;19.074;2022-11-11T07:13:50;22.50;;;11.93;;
75793;SDS011;64418;47.536;19.074;2022-11-11T07:16:17;22.87;;;12.03;;
75793;SDS011;64418;47.536;19.074;2022-11-11T07:18:44;26.23;;;12.23;;
75793;SDS011;64418;47.536;19.074;2022-11-11T07:21:09;24.98;;;12.37;;
75793;SDS011;64418;47.536;19.074;2022-11-11T07:23:35;28.20;;;13.93;;
75793;SDS011;64418;47.536;19.074;2022-11-11T07:26:02;25.40;;;12.18;;
75793;SDS011;64418;47.536;19.074;2022-11-11T07:28:28;22.40;;;12.35;;
75793;SDS011;64418;47.536;19.074;2022-11-11T07:30:54;23.40;;;11.80;;
75793;SDS011;64418;47.536;19.074;2022-11-11T07:33:21;23.08;;;12.80;;
75793;SDS011;64418;47.536;19.074;2022-11-11T07:35:47;24.85;;;12.77;;
75793;SDS011;64418;47.536;19.074;2022-11-11T07:38:14;22.23;;;12.30;;
75793;SDS011;64418;47.536;19.074;2022-11-11T07:40:40;19.17;;;11.27;;
75793;SDS011;64418;47.536;19.074;2022-11-11T07:43:06;26.98;;;11.68;;
75793;SDS011;64418;47.536;19.074;2022-11-11T07:45:32;21.77;;;11.50;;
75793;SDS011;64418;47.536;19.074;2022-11-11T07:47:58;23.83;;;11.97;;
75793;SDS011;64418;47.536;19.074;2022-11-11T07:50:25;25.17;;;12.60;;
75793;SDS011;64418;47.536;19.074;2022-11-11T07:52:52;21.87;;;12.18;;
75793;SDS011;64418;47.536;19.074;2022-11-11T07:55:18;25.10;;;13.07;;
75793;SDS011;64418;47.536;19.074;2022-11-11T07:57:44;27.60;;;13.03;;
75793;SDS011;64418;47.536;19.074;2022-11-11T08:00:11;21.37;;;11.90;;
75793;SDS011;64418;47.536;19.074;2022-11-11T08:02:38;23.98;;;12.15;;
75793;SDS011;64418;47.536;19.074;2022-11-11T08:05:04;22.90;;;12.50;;
75793;SDS011;64418;47.536;19.074;2022-11-11T08:07:31;25.13;;;12.53;;
75793;SDS011;64418;47.536;19.074;2022-11-11T08:09:58;28.02;;;12.75;;
75793;SDS011;64418;47.536;19.074;2022-11-11T08:12:24;22.17;;;12.13;;
75793;SDS011;64418;47.536;19.074;2022-11-11T08:14:50;23.85;;;12.60;;
75793;SDS011;64418;47.536;19.074;2022-11-11T08:17:16;23.80;;;12.83;;
75793;SDS011;64418;47.536;19.074;2022-11-11T08:19:42;27.23;;;13.23;;
75793;SDS011;64418;47.536;19.074;2022-11-11T08:22:08;25.15;;;12.10;;
75793;SDS011;64418;47.536;19.074;2022-11-11T08:24:35;23.10;;;11.70;;
75793;SDS011;64418;47.536;19.074;2022-11-11T08:27:01;21.52;;;11.43;;
75793;SDS011;64418;47.536;19.074;2022-11-11T08:29:30;21.42;;;11.18;;
75793;SDS011;64418;47.536;19.074;2022-11-11T08:31:56;22.30;;;11.10;;
75793;SDS011;64418;47.536;19.074;2022-11-11T08:34:23;23.50;;;12.33;;
75793;SDS011;64418;47.536;19.074;2022-11-11T08:36:49;21.35;;;11.05;;
75793;SDS011;64418;47.536;19.074;2022-11-11T08:39:15;21.92;;;11.05;;
75793;SDS011;64418;47.536;19.074;2022-11-11T08:41:42;20.43;;;10.97;;
75793;SDS011;64418;47.536;19.074;2022-11-11T08:44:08;20.85;;;11.30;;
75793;SDS011;64418;47.536;19.074;2022-11-11T08:46:34;19.10;;;11.18;;
75793;SDS011;64418;47.536;19.074;2022-11-11T08:49:00;20.13;;;10.73;;
75793;SDS011;64418;47.536;19.074;2022-11-11T08:51:28;18.42;;;10.43;;
75793;SDS011;64418;47.536;19.074;2022-11-11T08:53:57;20.35;;;10.52;;
75793;SDS011;64418;47.536;19.074;2022-11-11T08:56:23;25.65;;;10.90;;
75793;SDS011;64418;47.536;19.074;2022-11-11T08:58:50;19.90;;;11.40;;
75793;SDS011;64418;47.536;19.074;2022-11-11T09:01:16;20.48;;;11.15;;
75793;SDS011;64418;47.536;19.074;2022-11-11T09:03:42;22.62;;;11.00;;
75793;SDS011;64418;47.536;19.074;2022-11-11T09:06:09;21.45;;;10.95;;
75793;SDS011;64418;47.536;19.074;2022-11-11T09:08:36;21.43;;;11.20;;
75793;SDS011;64418;47.536;19.074;2022-11-11T09:11:02;20.92;;;11.27;;
75793;SDS011;64418;47.536;19.074;2022-11-11T09:13:28;22.83;;;12.37;;
75793;SDS011;64418;47.536;19.074;2022-11-11T09:15:55;19.60;;;11.60;;
75793;SDS011;64418;47.536;19.074;2022-11-11T09:18:22;19.70;;;10.83;;
75793;SDS011;64418;47.536;19.074;2022-11-11T09:20:47;18.92;;;11.75;;
75793;SDS011;64418;47.536;19.074;2022-11-11T09:23:13;19.53;;;11.20;;
75793;SDS011;64418;47.536;19.074;2022-11-11T09:25:39;21.92;;;12.25;;
75793;SDS011;64418;47.536;19.074;2022-11-11T09:28:05;24.00;;;12.75;;
75793;SDS011;64418;47.536;19.074;2022-11-11T09:30:31;18.53;;;10.80;;
75793;SDS011;64418;47.536;19.074;2022-11-11T09:33:01;24.73;;;12.00;;
75793;SDS011;64418;47.536;19.074;2022-11-11T09:35:28;25.50;;;12.40;;
75793;SDS011;64418;47.536;19.074;2022-11-11T09:37:54;28.73;;;12.67;;
75793;SDS011;64418;47.536;19.074;2022-11-11T09:40:21;25.87;;;14.63;;
75793;SDS011;64418;47.536;19.074;2022-11-11T09:42:54;25.02;;;13.68;;
75793;SDS011;64418;47.536;19.074;2022-11-11T09:45:28;24.90;;;13.43;;
75793;SDS011;64418;47.536;19.074;2022-11-11T09:48:06;27.48;;;13.70;;
75793;SDS011;64418;47.536;19.074;2022-11-11T09:50:49;22.92;;;13.50;;
75793;SDS011;64418;47.536;19.074;2022-11-11T09:53:20;23.43;;;13.53;;
75793;SDS011;64418;47.536;19.074;2022-11-11T09:55:48;25.02;;;13.75;;
75793;SDS011;64418;47.536;19.074;2022-11-11T09:58:20;23.52;;;13.57;;
75793;SDS011;64418;47.536;19.074;2022-11-11T10:00:50;23.00;;;14.05;;
75793;SDS011;64418;47.536;19.074;2022-11-11T10:03:24;24.45;;;13.18;;
75793;SDS011;64418;47.536;19.074;2022-11-11T10:05:53;24.93;;;14.57;;
75793;SDS011;64418;47.536;19.074;2022-11-11T10:08:24;24.30;;;14.10;;
75793;SDS011;64418;47.536;19.074;2022-11-11T10:10:54;26.55;;;13.62;;
75793;SDS011;64418;47.536;19.074;2022-11-11T10:13:26;28.83;;;15.98;;
75793;SDS011;64418;47.536;19.074;2022-11-11T10:15:56;27.17;;;14.85;;
75793;SDS011;64418;47.536;19.074;2022-11-11T10:18:36;29.60;;;14.50;;
75793;SDS011;64418;47.536;19.074;2022-11-11T10:21:12;24.55;;;14.65;;
75793;SDS011;64418;47.536;19.074;2022-11-11T10:23:40;29.65;;;14.57;;
75793;SDS011;64418;47.536;19.074;2022-11-11T10:26:13;25.98;;;14.98;;
75793;SDS011;64418;47.536;19.074;2022-11-11T10:28:43;24.20;;;15.55;;
75793;SDS011;64418;47.536;19.074;2022-11-11T10:31:10;25.87;;;14.87;;
75793;SDS011;64418;47.536;19.074;2022-11-11T10:33:43;34.75;;;16.40;;
75793;SDS011;64418;47.536;19.074;2022-11-11T10:36:15;30.67;;;14.87;;
75793;SDS011;64418;47.536;19.074;2022-11-11T10:38:46;27.10;;;14.60;;
75793;SDS011;64418;47.536;19.074;2022-11-11T10:41:18;24.42;;;14.35;;
75793;SDS011;64418;47.536;19.074;2022-11-11T10:43:50;24.97;;;13.30;;
75793;SDS011;64418;47.536;19.074;2022-11-11T10:46:17;22.92;;;13.27;;
75793;SDS011;64418;47.536;19.074;2022-11-11T10:48:52;26.70;;;13.82;;
75793;SDS011;64418;47.536;19.074;2022-11-11T10:51:24;24.15;;;13.82;;
75793;SDS011;64418;47.536;19.074;2022-11-11T10:54:00;23.98;;;14.15;;
75793;SDS011;64418;47.536;19.074;2022-11-11T10:56:33;34.27;;;17.47;;
75793;SDS011;64418;47.536;19.074;2022-11-11T10:59:05;31.12;;;15.93;;
75793;SDS011;64418;47.536;19.074;2022-11-11T11:01:39;28.15;;;14.57;;
75793;SDS011;64418;47.536;19.074;2022-11-11T11:04:13;27.45;;;15.32;;
75793;SDS011;64418;47.536;19.074;2022-11-11T11:06:45;26.00;;;14.85;;
75793;SDS011;64418;47.536;19.074;2022-11-11T11:09:15;25.30;;;14.90;;
75793;SDS011;64418;47.536;19.074;2022-11-11T11:11:48;25.37;;;13.95;;
75793;SDS011;64418;47.536;19.074;2022-11-11T11:14:20;22.67;;;13.90;;
75793;SDS011;64418;47.536;19.074;2022-11-11T11:16:52;27.62;;;14.57;;
75793;SDS011;64418;47.536;19.074;2022-11-11T11:19:24;21.40;;;12.13;;
75793;SDS011;64418;47.536;19.074;2022-11-11T11:21:52;21.50;;;12.20;;
75793;SDS011;64418;47.536;19.074;2022-11-11T11:24:21;24.00;;;13.10;;
75793;SDS011;64418;47.536;19.074;2022-11-11T11:26:50;22.77;;;13.27;;
75793;SDS011;64418;47.536;19.074;2022-11-11T11:29:23;22.57;;;10.77;;
75793;SDS011;64418;47.536;19.074;2022-11-11T11:31:51;14.73;;;8.23;;
75793;SDS011;64418;47.536;19.074;2022-11-11T11:34:17;11.80;;;6.37;;
75793;SDS011;64418;47.536;19.074;2022-11-11T11:36:45;11.25;;;6.70;;
75793;SDS011;64418;47.536;19.074;2022-11-11T11:39:30;11.03;;;5.27;;
75793;SDS011;64418;47.536;19.074;2022-11-11T11:41:57;10.30;;;4.68;;
75793;SDS011;64418;47.536;19.074;2022-11-11T11:44:23;10.80;;;4.32;;
75793;SDS011;64418;47.536;19.074;2022-11-11T11:46:50;9.15;;;4.28;;
75793;SDS011;64418;47.536;19.074;2022-11-11T11:49:23;9.73;;;3.75;;
75793;SDS011;64418;47.536;19.074;2022-11-11T11:52:04;10.10;;;3.80;;
75793;SDS011;64418;47.536;19.074;2022-11-11T11:54:48;8.68;;;4.22;;
75793;SDS011;64418;47.536;19.074;2022-11-11T11:57:23;9.77;;;3.97;;
75793;SDS011;64418;47.536;19.074;2022-11-11T12:00:03;11.20;;;4.70;;
75793;SDS011;64418;47.536;19.074;2022-11-11T12:02:35;11.73;;;5.03;;
75793;SDS011;64418;47.536;19.074;2022-11-11T12:05:15;10.03;;;5.13;;
75793;SDS011;64418;47.536;19.074;2022-11-11T12:07:54;13.13;;;5.50;;
75793;SDS011;64418;47.536;19.074;2022-11-11T12:10:35;8.23;;;4.57;;
75793;SDS011;64418;47.536;19.074;2022-11-11T12:13:07;10.60;;;4.62;;
75793;SDS011;64418;47.536;19.074;2022-11-11T12:15:44;9.98;;;5.32;;
75793;SDS011;64418;47.536;19.074;2022-11-11T12:21:23;11.98;;;5.32;;
75793;SDS011;64418;47.536;19.074;2022-11-11T12:23:57;8.43;;;4.50;;
75793;SDS011;64418;47.536;19.074;2022-11-11T12:26:34;8.23;;;4.30;;
75793;SDS011;64418;47.536;19.074;2022-11-11T12:29:11;8.65;;;4.07;;
75793;SDS011;64418;47.536;19.074;2022-11-11T12:31:52;8.23;;;3.97;;
75793;SDS011;64418;47.536;19.074;2022-11-11T12:37:30;6.35;;;3.08;;
75793;SDS011;64418;47.536;19.074;2022-11-11T12:40:15;9.88;;;4.28;;
75793;SDS011;64418;47.536;19.074;2022-11-11T12:42:55;7.55;;;4.00;;
75793;SDS011;64418;47.536;19.074;2022-11-11T12:45:30;6.43;;;3.83;;
75793;SDS011;64418;47.536;19.074;2022-11-11T12:48:04;7.57;;;3.40;;
75793;SDS011;64418;47.536;19.074;2022-11-11T12:50:44;9.60;;;3.87;;
75793;SDS011;64418;47.536;19.074;2022-11-11T12:53:22;10.32;;;4.28;;
75793;SDS011;64418;47.536;19.074;2022-11-11T12:55:59;9.35;;;3.87;;
75793;SDS011;64418;47.536;19.074;2022-11-11T12:58:37;8.43;;;3.80;;
75793;SDS011;64418;47.536;19.074;2022-11-11T13:01:13;7.43;;;3.85;;
75793;SDS011;64418;47.536;19.074;2022-11-11T13:03:54;8.57;;;3.62;;
75793;SDS011;64418;47.536;19.074;2022-11-11T13:06:39;9.30;;;3.50;;
75793;SDS011;64418;47.536;19.074;2022-11-11T13:09:16;8.52;;;3.92;;
75793;SDS011;64418;47.536;19.074;2022-11-11T13:12:04;9.70;;;3.87;;
75793;SDS011;64418;47.536;19.074;2022-11-11T13:17:36;7.15;;;2.92;;
75793;SDS011;64418;47.536;19.074;2022-11-11T13:20:04;6.53;;;3.67;;
75793;SDS011;64418;47.536;19.074;2022-11-11T13:22:41;7.35;;;3.47;;
75793;SDS011;64418;47.536;19.074;2022-11-11T13:25:10;9.30;;;3.20;;
75793;SDS011;64418;47.536;19.074;2022-11-11T13:27:46;8.87;;;3.63;;
75793;SDS011;64418;47.536;19.074;2022-11-11T13:33:04;10.43;;;4.12;;
75793;SDS011;64418;47.536;19.074;2022-11-11T13:35:35;10.55;;;4.50;;
75793;SDS011;64418;47.536;19.074;2022-11-11T13:38:06;11.02;;;4.53;;
75793;SDS011;64418;47.536;19.074;2022-11-11T13:40:38;9.43;;;4.87;;
75793;SDS011;64418;47.536;19.074;2022-11-11T13:43:15;11.40;;;5.15;;
75793;SDS011;64418;47.536;19.074;2022-11-11T13:45:49;13.07;;;6.10;;
75793;SDS011;64418;47.536;19.074;2022-11-11T13:48:19;11.52;;;5.97;;
75793;SDS011;64418;47.536;19.074;2022-11-11T13:50:49;13.50;;;6.82;;
75793;SDS011;64418;47.536;19.074;2022-11-11T13:53:15;12.57;;;7.13;;
75793;SDS011;64418;47.536;19.074;2022-11-11T13:55:51;20.98;;;7.93;;
75793;SDS011;64418;47.536;19.074;2022-11-11T13:58:28;16.60;;;8.38;;
75793;SDS011;64418;47.536;19.074;2022-11-11T14:00:57;14.02;;;7.22;;
75793;SDS011;64418;47.536;19.074;2022-11-11T14:03:30;13.43;;;6.93;;
75793;SDS011;64418;47.536;19.074;2022-11-11T14:09:01;10.20;;;5.60;;
75793;SDS011;64418;47.536;19.074;2022-11-11T14:11:28;9.13;;;6.07;;
75793;SDS011;64418;47.536;19.074;2022-11-11T14:13:57;10.13;;;5.68;;
75793;SDS011;64418;47.536;19.074;2022-11-11T14:17:03;12.27;;;5.72;;
75793;SDS011;64418;47.536;19.074;2022-11-11T14:19:29;11.20;;;6.23;;
75793;SDS011;64418;47.536;19.074;2022-11-11T14:21:56;14.50;;;6.20;;
75793;SDS011;64418;47.536;19.074;2022-11-11T14:24:24;11.10;;;6.07;;
75793;SDS011;64418;47.536;19.074;2022-11-11T14:26:56;10.48;;;6.15;;
75793;SDS011;64418;47.536;19.074;2022-11-11T14:29:48;11.15;;;5.80;;
75793;SDS011;64418;47.536;19.074;2022-11-11T14:32:23;9.80;;;5.27;;
75793;SDS011;64418;47.536;19.074;2022-11-11T14:35:13;11.30;;;4.47;;
75793;SDS011;64418;47.536;19.074;2022-11-11T14:37:57;9.90;;;5.40;;